sensor_id;sensor_type;location;lat;lon;timestamp;P1;durP1;ratioP1;P2;durP2;ratioP2
19291;SDS011;9779;51.756;7.450;2023-06-10T00:00:37;6.03;;;5.55;;
19291;SDS011;9779;51.756;7.450;2023-06-10T00:03:02;6.40;;;5.70;;
19291;SDS011;9779;51.756;7.450;2023-06-10T00:05:28;6.40;;;5.68;;
19291;SDS011;9779;51.756;7.450;2023-06-10T00:07:57;6.10;;;5.55;;
19291;SDS011;9779;51.756;7.450;2023-06-10T00:10:23;5.47;;;4.95;;
19291;SDS011;9779;51.756;7.450;2023-06-10T00:12:49;5.68;;;5.30;;
19291;SDS011;9779;51.756;7.450;2023-06-10T00:15:16;5.55;;;5.25;;
19291;SDS011;9779;51.756;7.450;2023-06-10T00:17:42;7.07;;;5.47;;
19291;SDS011;9779;51.756;7.450;2023-06-10T00:20:08;6.47;;;5.88;;
19291;SDS011;9779;51.756;7.450;2023-06-10T00:22:36;8.23;;;5.20;;
19291;SDS011;9779;51.756;7.450;2023-06-10T00:25:05;5.60;;;5.10;;
19291;SDS011;9779;51.756;7.450;2023-06-10T00:27:31;5.35;;;4.97;;
19291;SDS011;9779;51.756;7.450;2023-06-10T00:30:00;8.10;;;5.97;;
19291;SDS011;9779;51.756;7.450;2023-06-10T00:32:29;6.00;;;5.60;;
19291;SDS011;9779;51.756;7.450;2023-06-10T00:34:56;5.88;;;5.25;;
19291;SDS011;9779;51.756;7.450;2023-06-10T00:37:21;8.65;;;5.07;;
19291;SDS011;9779;51.756;7.450;2023-06-10T00:39:47;6.05;;;5.65;;
19291;SDS011;9779;51.756;7.450;2023-06-10T00:42:13;5.90;;;5.47;;
19291;SDS011;9779;51.756;7.450;2023-06-10T00:44:38;7.53;;;5.35;;
19291;SDS011;9779;51.756;7.450;2023-06-10T00:47:04;6.28;;;5.88;;
19291;SDS011;9779;51.756;7.450;2023-06-10T00:49:30;6.20;;;5.70;;
19291;SDS011;9779;51.756;7.450;2023-06-10T00:51:56;5.68;;;5.22;;
19291;SDS011;9779;51.756;7.450;2023-06-10T00:54:23;6.28;;;5.63;;
19291;SDS011;9779;51.756;7.450;2023-06-10T00:56:48;6.13;;;5.45;;
19291;SDS011;9779;51.756;7.450;2023-06-10T00:59:14;5.32;;;5.00;;
19291;SDS011;9779;51.756;7.450;2023-06-10T01:01:41;5.95;;;5.50;;
19291;SDS011;9779;51.756;7.450;2023-06-10T01:04:08;5.93;;;5.53;;
19291;SDS011;9779;51.756;7.450;2023-06-10T01:06:57;6.30;;;5.25;;
19291;SDS011;9779;51.756;7.450;2023-06-10T01:09:54;5.75;;;5.35;;
19291;SDS011;9779;51.756;7.450;2023-06-10T01:12:49;5.78;;;5.38;;
19291;SDS011;9779;51.756;7.450;2023-06-10T01:15:24;7.13;;;5.68;;
19291;SDS011;9779;51.756;7.450;2023-06-10T01:17:57;6.32;;;5.82;;
19291;SDS011;9779;51.756;7.450;2023-06-10T01:20:40;6.07;;;5.10;;
19291;SDS011;9779;51.756;7.450;2023-06-10T01:23:08;5.38;;;4.95;;
19291;SDS011;9779;51.756;7.450;2023-06-10T01:25:37;7.60;;;5.85;;
19291;SDS011;9779;51.756;7.450;2023-06-10T01:33:47;7.07;;;5.80;;
19291;SDS011;9779;51.756;7.450;2023-06-10T01:36:15;5.83;;;5.40;;
19291;SDS011;9779;51.756;7.450;2023-06-10T01:38:43;5.80;;;5.30;;
19291;SDS011;9779;51.756;7.450;2023-06-10T01:41:15;5.90;;;5.40;;
19291;SDS011;9779;51.756;7.450;2023-06-10T01:43:45;5.20;;;4.90;;
19291;SDS011;9779;51.756;7.450;2023-06-10T01:46:11;5.78;;;5.38;;
19291;SDS011;9779;51.756;7.450;2023-06-10T01:48:37;5.40;;;5.00;;
19291;SDS011;9779;51.756;7.450;2023-06-10T01:51:03;9.17;;;5.47;;
19291;SDS011;9779;51.756;7.450;2023-06-10T01:53:29;6.32;;;5.65;;
19291;SDS011;9779;51.756;7.450;2023-06-10T01:55:55;5.65;;;5.30;;
19291;SDS011;9779;51.756;7.450;2023-06-10T01:58:20;6.00;;;4.93;;
19291;SDS011;9779;51.756;7.450;2023-06-10T02:00:46;6.88;;;6.38;;
19291;SDS011;9779;51.756;7.450;2023-06-10T02:03:12;5.95;;;5.55;;
19291;SDS011;9779;51.756;7.450;2023-06-10T02:05:37;5.47;;;5.07;;
19291;SDS011;9779;51.756;7.450;2023-06-10T02:08:03;5.50;;;5.10;;
19291;SDS011;9779;51.756;7.450;2023-06-10T02:10:29;5.80;;;5.33;;
19291;SDS011;9779;51.756;7.450;2023-06-10T02:12:55;6.03;;;5.50;;
19291;SDS011;9779;51.756;7.450;2023-06-10T02:15:20;5.85;;;5.25;;
19291;SDS011;9779;51.756;7.450;2023-06-10T02:17:46;6.13;;;5.63;;
19291;SDS011;9779;51.756;7.450;2023-06-10T02:20:13;6.03;;;5.53;;
19291;SDS011;9779;51.756;7.450;2023-06-10T02:22:39;5.60;;;5.10;;
19291;SDS011;9779;51.756;7.450;2023-06-10T02:25:05;6.03;;;5.57;;
19291;SDS011;9779;51.756;7.450;2023-06-10T02:27:31;6.63;;;5.60;;
19291;SDS011;9779;51.756;7.450;2023-06-10T02:29:57;5.93;;;5.50;;
19291;SDS011;9779;51.756;7.450;2023-06-10T02:32:23;6.63;;;5.68;;
19291;SDS011;9779;51.756;7.450;2023-06-10T02:34:48;6.10;;;5.70;;
19291;SDS011;9779;51.756;7.450;2023-06-10T02:37:14;9.37;;;5.77;;
19291;SDS011;9779;51.756;7.450;2023-06-10T02:39:40;5.87;;;5.33;;
19291;SDS011;9779;51.756;7.450;2023-06-10T02:42:06;6.32;;;5.72;;
19291;SDS011;9779;51.756;7.450;2023-06-10T02:44:32;8.67;;;6.10;;
19291;SDS011;9779;51.756;7.450;2023-06-10T02:46:57;5.87;;;5.40;;
19291;SDS011;9779;51.756;7.450;2023-06-10T02:49:23;8.43;;;5.77;;
19291;SDS011;9779;51.756;7.450;2023-06-10T02:51:49;6.00;;;5.40;;
19291;SDS011;9779;51.756;7.450;2023-06-10T02:54:18;6.03;;;5.63;;
19291;SDS011;9779;51.756;7.450;2023-06-10T02:56:47;5.43;;;4.93;;
19291;SDS011;9779;51.756;7.450;2023-06-10T02:59:13;6.30;;;5.80;;
19291;SDS011;9779;51.756;7.450;2023-06-10T03:01:39;6.37;;;5.77;;
19291;SDS011;9779;51.756;7.450;2023-06-10T03:04:05;6.07;;;4.97;;
19291;SDS011;9779;51.756;7.450;2023-06-10T03:06:31;6.07;;;5.47;;
19291;SDS011;9779;51.756;7.450;2023-06-10T03:08:59;8.17;;;5.40;;
19291;SDS011;9779;51.756;7.450;2023-06-10T03:11:25;6.17;;;5.67;;
19291;SDS011;9779;51.756;7.450;2023-06-10T03:13:51;5.87;;;5.47;;
19291;SDS011;9779;51.756;7.450;2023-06-10T03:16:19;6.03;;;5.20;;
19291;SDS011;9779;51.756;7.450;2023-06-10T03:18:44;5.90;;;5.40;;
19291;SDS011;9779;51.756;7.450;2023-06-10T03:21:10;6.60;;;6.00;;
19291;SDS011;9779;51.756;7.450;2023-06-10T03:23:36;6.03;;;5.60;;
19291;SDS011;9779;51.756;7.450;2023-06-10T03:26:02;5.40;;;5.00;;
19291;SDS011;9779;51.756;7.450;2023-06-10T03:28:29;6.10;;;5.43;;
19291;SDS011;9779;51.756;7.450;2023-06-10T03:30:55;6.37;;;5.80;;
19291;SDS011;9779;51.756;7.450;2023-06-10T03:33:21;10.20;;;5.27;;
19291;SDS011;9779;51.756;7.450;2023-06-10T03:35:47;6.30;;;5.80;;
19291;SDS011;9779;51.756;7.450;2023-06-10T03:38:12;5.70;;;5.30;;
19291;SDS011;9779;51.756;7.450;2023-06-10T03:40:38;5.70;;;5.20;;
19291;SDS011;9779;51.756;7.450;2023-06-10T03:43:04;5.43;;;5.03;;
19291;SDS011;9779;51.756;7.450;2023-06-10T03:45:29;5.70;;;5.20;;
19291;SDS011;9779;51.756;7.450;2023-06-10T03:47:55;6.20;;;5.60;;
19291;SDS011;9779;51.756;7.450;2023-06-10T03:50:21;8.57;;;5.60;;
19291;SDS011;9779;51.756;7.450;2023-06-10T03:52:48;7.57;;;4.77;;
19291;SDS011;9779;51.756;7.450;2023-06-10T03:55:17;8.13;;;5.33;;
19291;SDS011;9779;51.756;7.450;2023-06-10T03:57:43;9.37;;;5.20;;
19291;SDS011;9779;51.756;7.450;2023-06-10T04:00:09;6.90;;;5.10;;
19291;SDS011;9779;51.756;7.450;2023-06-10T04:02:36;6.30;;;5.47;;
19291;SDS011;9779;51.756;7.450;2023-06-10T04:05:02;6.73;;;5.43;;
19291;SDS011;9779;51.756;7.450;2023-06-10T04:07:29;5.77;;;4.60;;
19291;SDS011;9779;51.756;7.450;2023-06-10T04:09:55;5.90;;;5.20;;
19291;SDS011;9779;51.756;7.450;2023-06-10T04:12:21;5.23;;;4.73;;
19291;SDS011;9779;51.756;7.450;2023-06-10T04:14:46;5.73;;;5.20;;
19291;SDS011;9779;51.756;7.450;2023-06-10T04:17:12;6.57;;;5.10;;
19291;SDS011;9779;51.756;7.450;2023-06-10T04:19:37;5.60;;;4.67;;
19291;SDS011;9779;51.756;7.450;2023-06-10T04:22:03;10.73;;;5.60;;
19291;SDS011;9779;51.756;7.450;2023-06-10T04:24:30;5.03;;;4.63;;
19291;SDS011;9779;51.756;7.450;2023-06-10T04:26:55;5.67;;;5.17;;
19291;SDS011;9779;51.756;7.450;2023-06-10T04:29:21;7.40;;;5.20;;
19291;SDS011;9779;51.756;7.450;2023-06-10T04:31:47;10.97;;;5.00;;
19291;SDS011;9779;51.756;7.450;2023-06-10T04:34:12;9.23;;;5.07;;
19291;SDS011;9779;51.756;7.450;2023-06-10T04:36:38;8.27;;;4.80;;
19291;SDS011;9779;51.756;7.450;2023-06-10T04:39:04;5.90;;;4.73;;
19291;SDS011;9779;51.756;7.450;2023-06-10T04:41:30;5.13;;;4.50;;
19291;SDS011;9779;51.756;7.450;2023-06-10T04:43:56;5.83;;;5.00;;
19291;SDS011;9779;51.756;7.450;2023-06-10T04:46:22;4.27;;;3.93;;
19291;SDS011;9779;51.756;7.450;2023-06-10T04:48:49;5.10;;;4.60;;
19291;SDS011;9779;51.756;7.450;2023-06-10T04:51:15;7.37;;;4.73;;
19291;SDS011;9779;51.756;7.450;2023-06-10T04:53:41;4.93;;;4.33;;
19291;SDS011;9779;51.756;7.450;2023-06-10T04:56:07;6.13;;;4.30;;
19291;SDS011;9779;51.756;7.450;2023-06-10T04:58:33;7.37;;;4.77;;
19291;SDS011;9779;51.756;7.450;2023-06-10T05:00:58;5.57;;;4.57;;
19291;SDS011;9779;51.756;7.450;2023-06-10T05:03:24;8.50;;;5.23;;
19291;SDS011;9779;51.756;7.450;2023-06-10T05:05:51;5.17;;;4.67;;
19291;SDS011;9779;51.756;7.450;2023-06-10T05:08:16;4.97;;;4.57;;
19291;SDS011;9779;51.756;7.450;2023-06-10T05:10:42;5.20;;;4.80;;
19291;SDS011;9779;51.756;7.450;2023-06-10T05:13:07;21.67;;;5.23;;
19291;SDS011;9779;51.756;7.450;2023-06-10T05:15:33;10.00;;;5.20;;
19291;SDS011;9779;51.756;7.450;2023-06-10T05:17:59;4.87;;;4.47;;
19291;SDS011;9779;51.756;7.450;2023-06-10T05:20:25;8.30;;;5.03;;
19291;SDS011;9779;51.756;7.450;2023-06-10T05:22:50;5.33;;;4.83;;
19291;SDS011;9779;51.756;7.450;2023-06-10T05:25:16;8.57;;;4.77;;
19291;SDS011;9779;51.756;7.450;2023-06-10T05:27:42;6.07;;;4.37;;
19291;SDS011;9779;51.756;7.450;2023-06-10T05:30:08;10.10;;;4.63;;
19291;SDS011;9779;51.756;7.450;2023-06-10T05:32:35;4.47;;;4.10;;
19291;SDS011;9779;51.756;7.450;2023-06-10T05:35:01;5.53;;;4.30;;
19291;SDS011;9779;51.756;7.450;2023-06-10T05:37:27;4.90;;;4.40;;
19291;SDS011;9779;51.756;7.450;2023-06-10T05:39:52;5.10;;;4.60;;
19291;SDS011;9779;51.756;7.450;2023-06-10T05:42:18;6.40;;;4.23;;
19291;SDS011;9779;51.756;7.450;2023-06-10T05:44:43;4.77;;;4.47;;
19291;SDS011;9779;51.756;7.450;2023-06-10T05:47:09;4.97;;;4.57;;
19291;SDS011;9779;51.756;7.450;2023-06-10T05:49:34;5.15;;;4.65;;
19291;SDS011;9779;51.756;7.450;2023-06-10T05:52:00;7.60;;;4.43;;
19291;SDS011;9779;51.756;7.450;2023-06-10T05:54:26;4.93;;;4.40;;
19291;SDS011;9779;51.756;7.450;2023-06-10T05:56:52;8.20;;;4.23;;
19291;SDS011;9779;51.756;7.450;2023-06-10T05:59:17;5.80;;;4.83;;
19291;SDS011;9779;51.756;7.450;2023-06-10T06:01:43;4.63;;;3.97;;
19291;SDS011;9779;51.756;7.450;2023-06-10T06:04:08;4.60;;;4.20;;
19291;SDS011;9779;51.756;7.450;2023-06-10T06:06:35;4.13;;;3.73;;
19291;SDS011;9779;51.756;7.450;2023-06-10T06:09:03;4.80;;;4.30;;
19291;SDS011;9779;51.756;7.450;2023-06-10T06:11:28;6.40;;;4.30;;
19291;SDS011;9779;51.756;7.450;2023-06-10T06:13:54;6.17;;;3.90;;
19291;SDS011;9779;51.756;7.450;2023-06-10T06:16:19;7.07;;;3.97;;
19291;SDS011;9779;51.756;7.450;2023-06-10T06:18:45;4.40;;;4.10;;
19291;SDS011;9779;51.756;7.450;2023-06-10T06:21:10;6.35;;;4.20;;
19291;SDS011;9779;51.756;7.450;2023-06-10T06:23:36;6.72;;;4.00;;
19291;SDS011;9779;51.756;7.450;2023-06-10T06:26:02;4.00;;;3.70;;
19291;SDS011;9779;51.756;7.450;2023-06-10T06:28:27;5.30;;;4.53;;
19291;SDS011;9779;51.756;7.450;2023-06-10T06:30:56;5.53;;;3.95;;
19291;SDS011;9779;51.756;7.450;2023-06-10T06:33:22;4.33;;;3.93;;
19291;SDS011;9779;51.756;7.450;2023-06-10T06:35:48;4.10;;;3.73;;
19291;SDS011;9779;51.756;7.450;2023-06-10T06:38:13;4.88;;;3.95;;
19291;SDS011;9779;51.756;7.450;2023-06-10T06:40:39;5.72;;;4.25;;
19291;SDS011;9779;51.756;7.450;2023-06-10T06:43:04;4.88;;;3.80;;
19291;SDS011;9779;51.756;7.450;2023-06-10T06:45:30;5.75;;;3.67;;
19291;SDS011;9779;51.756;7.450;2023-06-10T06:47:55;4.25;;;3.95;;
19291;SDS011;9779;51.756;7.450;2023-06-10T06:50:21;3.50;;;3.28;;
19291;SDS011;9779;51.756;7.450;2023-06-10T06:52:47;4.80;;;3.83;;
19291;SDS011;9779;51.756;7.450;2023-06-10T06:55:12;8.32;;;3.58;;
19291;SDS011;9779;51.756;7.450;2023-06-10T06:57:38;5.70;;;3.20;;
19291;SDS011;9779;51.756;7.450;2023-06-10T07:00:03;6.05;;;4.07;;
19291;SDS011;9779;51.756;7.450;2023-06-10T07:02:30;3.83;;;3.53;;
19291;SDS011;9779;51.756;7.450;2023-06-10T07:04:57;6.72;;;4.10;;
19291;SDS011;9779;51.756;7.450;2023-06-10T07:07:23;5.93;;;3.83;;
19291;SDS011;9779;51.756;7.450;2023-06-10T07:09:49;4.65;;;3.42;;
19291;SDS011;9779;51.756;7.450;2023-06-10T07:12:15;3.88;;;3.38;;
19291;SDS011;9779;51.756;7.450;2023-06-10T07:14:41;10.82;;;3.75;;
19291;SDS011;9779;51.756;7.450;2023-06-10T07:17:06;3.78;;;3.40;;
19291;SDS011;9779;51.756;7.450;2023-06-10T07:19:32;3.80;;;3.50;;
19291;SDS011;9779;51.756;7.450;2023-06-10T07:21:57;8.05;;;3.47;;
19291;SDS011;9779;51.756;7.450;2023-06-10T07:24:23;4.65;;;3.53;;
19291;SDS011;9779;51.756;7.450;2023-06-10T07:26:48;3.63;;;3.38;;
19291;SDS011;9779;51.756;7.450;2023-06-10T07:29:15;4.15;;;3.22;;
19291;SDS011;9779;51.756;7.450;2023-06-10T07:31:40;3.78;;;3.03;;
19291;SDS011;9779;51.756;7.450;2023-06-10T07:34:06;8.80;;;3.13;;
19291;SDS011;9779;51.756;7.450;2023-06-10T07:36:32;3.50;;;3.30;;
19291;SDS011;9779;51.756;7.450;2023-06-10T07:38:57;3.30;;;3.00;;
19291;SDS011;9779;51.756;7.450;2023-06-10T07:41:23;3.30;;;3.00;;
19291;SDS011;9779;51.756;7.450;2023-06-10T07:43:52;5.05;;;3.60;;
19291;SDS011;9779;51.756;7.450;2023-06-10T07:46:23;5.07;;;2.92;;
19291;SDS011;9779;51.756;7.450;2023-06-10T07:48:49;6.25;;;3.20;;
19291;SDS011;9779;51.756;7.450;2023-06-10T07:51:15;6.03;;;3.00;;
19291;SDS011;9779;51.756;7.450;2023-06-10T07:53:41;3.05;;;2.75;;
19291;SDS011;9779;51.756;7.450;2023-06-10T07:56:07;7.22;;;2.80;;
19291;SDS011;9779;51.756;7.450;2023-06-10T07:58:33;3.72;;;3.33;;
19291;SDS011;9779;51.756;7.450;2023-06-10T08:00:58;3.28;;;2.97;;
19291;SDS011;9779;51.756;7.450;2023-06-10T08:03:24;5.40;;;3.03;;
19291;SDS011;9779;51.756;7.450;2023-06-10T08:05:49;3.45;;;2.78;;
19291;SDS011;9779;51.756;7.450;2023-06-10T08:08:15;4.57;;;2.72;;
19291;SDS011;9779;51.756;7.450;2023-06-10T08:10:40;3.15;;;2.90;;
19291;SDS011;9779;51.756;7.450;2023-06-10T08:13:07;2.72;;;2.53;;
19291;SDS011;9779;51.756;7.450;2023-06-10T08:15:33;4.30;;;2.50;;
19291;SDS011;9779;51.756;7.450;2023-06-10T08:17:58;3.88;;;2.72;;
19291;SDS011;9779;51.756;7.450;2023-06-10T08:20:24;3.28;;;2.80;;
19291;SDS011;9779;51.756;7.450;2023-06-10T08:22:50;2.88;;;2.63;;
19291;SDS011;9779;51.756;7.450;2023-06-10T08:25:15;9.32;;;2.60;;
19291;SDS011;9779;51.756;7.450;2023-06-10T08:27:41;8.85;;;6.55;;
19291;SDS011;9779;51.756;7.450;2023-06-10T08:30:06;3.72;;;3.42;;
19291;SDS011;9779;51.756;7.450;2023-06-10T08:32:33;3.70;;;3.03;;
19291;SDS011;9779;51.756;7.450;2023-06-10T08:34:58;3.92;;;3.05;;
19291;SDS011;9779;51.756;7.450;2023-06-10T08:37:24;5.05;;;3.03;;
19291;SDS011;9779;51.756;7.450;2023-06-10T08:39:50;5.25;;;3.15;;
19291;SDS011;9779;51.756;7.450;2023-06-10T08:44:54;3.33;;;2.58;;
19291;SDS011;9779;51.756;7.450;2023-06-10T08:47:22;4.38;;;2.90;;
19291;SDS011;9779;51.756;7.450;2023-06-10T08:49:49;5.70;;;2.80;;
19291;SDS011;9779;51.756;7.450;2023-06-10T08:52:19;5.25;;;2.55;;
19291;SDS011;9779;51.756;7.450;2023-06-10T08:54:57;3.90;;;2.72;;
19291;SDS011;9779;51.756;7.450;2023-06-10T08:57:25;4.60;;;2.65;;
19291;SDS011;9779;51.756;7.450;2023-06-10T08:59:52;6.85;;;2.90;;
19291;SDS011;9779;51.756;7.450;2023-06-10T09:02:20;4.50;;;2.70;;
19291;SDS011;9779;51.756;7.450;2023-06-10T09:04:46;3.08;;;2.78;;
19291;SDS011;9779;51.756;7.450;2023-06-10T09:07:13;8.02;;;2.40;;
19291;SDS011;9779;51.756;7.450;2023-06-10T09:09:40;2.38;;;2.17;;
19291;SDS011;9779;51.756;7.450;2023-06-10T09:12:07;2.80;;;2.60;;
19291;SDS011;9779;51.756;7.450;2023-06-10T09:14:33;6.70;;;2.50;;
19291;SDS011;9779;51.756;7.450;2023-06-10T09:16:59;2.78;;;2.47;;
19291;SDS011;9779;51.756;7.450;2023-06-10T09:19:28;4.32;;;2.72;;
19291;SDS011;9779;51.756;7.450;2023-06-10T09:21:54;2.75;;;1.95;;
19291;SDS011;9779;51.756;7.450;2023-06-10T09:24:21;4.35;;;2.25;;
19291;SDS011;9779;51.756;7.450;2023-06-10T09:26:47;3.03;;;2.75;;
19291;SDS011;9779;51.756;7.450;2023-06-10T09:29:13;3.80;;;2.53;;
19291;SDS011;9779;51.756;7.450;2023-06-10T09:31:39;2.90;;;2.53;;
19291;SDS011;9779;51.756;7.450;2023-06-10T09:34:06;7.18;;;2.60;;
19291;SDS011;9779;51.756;7.450;2023-06-10T09:36:34;2.67;;;2.42;;
19291;SDS011;9779;51.756;7.450;2023-06-10T09:39:00;3.10;;;2.78;;
19291;SDS011;9779;51.756;7.450;2023-06-10T09:41:32;4.55;;;2.45;;
19291;SDS011;9779;51.756;7.450;2023-06-10T09:43:59;3.42;;;3.00;;
19291;SDS011;9779;51.756;7.450;2023-06-10T09:46:25;2.88;;;2.55;;
19291;SDS011;9779;51.756;7.450;2023-06-10T09:48:59;2.33;;;1.92;;
19291;SDS011;9779;51.756;7.450;2023-06-10T09:51:25;2.60;;;2.40;;
19291;SDS011;9779;51.756;7.450;2023-06-10T09:53:51;3.92;;;2.47;;
19291;SDS011;9779;51.756;7.450;2023-06-10T09:56:17;2.90;;;2.38;;
19291;SDS011;9779;51.756;7.450;2023-06-10T09:58:44;3.88;;;2.10;;
19291;SDS011;9779;51.756;7.450;2023-06-10T10:01:11;3.13;;;2.58;;
19291;SDS011;9779;51.756;7.450;2023-06-10T10:03:45;3.35;;;1.85;;
19291;SDS011;9779;51.756;7.450;2023-06-10T10:06:16;3.17;;;2.80;;
19291;SDS011;9779;51.756;7.450;2023-06-10T10:08:43;8.23;;;2.13;;
19291;SDS011;9779;51.756;7.450;2023-06-10T10:11:10;2.15;;;2.05;;
19291;SDS011;9779;51.756;7.450;2023-06-10T10:13:37;3.13;;;2.40;;
19291;SDS011;9779;51.756;7.450;2023-06-10T10:16:04;3.03;;;2.15;;
19291;SDS011;9779;51.756;7.450;2023-06-10T10:18:41;4.20;;;2.60;;
19291;SDS011;9779;51.756;7.450;2023-06-10T10:21:13;2.45;;;2.25;;
19291;SDS011;9779;51.756;7.450;2023-06-10T10:26:14;2.97;;;2.42;;
19291;SDS011;9779;51.756;7.450;2023-06-10T10:28:45;5.82;;;2.45;;
19291;SDS011;9779;51.756;7.450;2023-06-10T10:31:18;5.35;;;2.35;;
19291;SDS011;9779;51.756;7.450;2023-06-10T10:33:48;4.80;;;2.15;;
19291;SDS011;9779;51.756;7.450;2023-06-10T10:36:21;3.15;;;1.88;;
19291;SDS011;9779;51.756;7.450;2023-06-10T10:38:47;1.92;;;1.70;;
19291;SDS011;9779;51.756;7.450;2023-06-10T10:41:14;2.58;;;2.38;;
19291;SDS011;9779;51.756;7.450;2023-06-10T10:43:40;5.15;;;2.60;;
19291;SDS011;9779;51.756;7.450;2023-06-10T10:46:11;3.35;;;2.53;;
19291;SDS011;9779;51.756;7.450;2023-06-10T10:48:38;2.28;;;2.10;;
19291;SDS011;9779;51.756;7.450;2023-06-10T10:51:04;2.47;;;2.20;;
19291;SDS011;9779;51.756;7.450;2023-06-10T10:53:30;3.40;;;2.17;;
19291;SDS011;9779;51.756;7.450;2023-06-10T10:56:14;2.60;;;2.38;;
19291;SDS011;9779;51.756;7.450;2023-06-10T10:58:42;2.70;;;2.50;;
19291;SDS011;9779;51.756;7.450;2023-06-10T11:01:26;7.45;;;3.00;;
19291;SDS011;9779;51.756;7.450;2023-06-10T11:04:06;3.70;;;2.17;;
19291;SDS011;9779;51.756;7.450;2023-06-10T11:06:35;2.40;;;2.17;;
19291;SDS011;9779;51.756;7.450;2023-06-10T11:09:01;3.22;;;2.40;;
19291;SDS011;9779;51.756;7.450;2023-06-10T11:11:53;5.82;;;2.17;;
19291;SDS011;9779;51.756;7.450;2023-06-10T11:14:26;9.40;;;2.30;;
19291;SDS011;9779;51.756;7.450;2023-06-10T11:16:53;2.35;;;2.25;;
19291;SDS011;9779;51.756;7.450;2023-06-10T11:19:34;3.15;;;2.72;;
19291;SDS011;9779;51.756;7.450;2023-06-10T11:22:01;2.60;;;2.40;;
19291;SDS011;9779;51.756;7.450;2023-06-10T11:24:31;5.53;;;2.55;;
19291;SDS011;9779;51.756;7.450;2023-06-10T11:32:34;3.08;;;1.98;;
19291;SDS011;9779;51.756;7.450;2023-06-10T11:35:02;2.13;;;1.80;;
19291;SDS011;9779;51.756;7.450;2023-06-10T11:37:29;3.78;;;2.28;;
19291;SDS011;9779;51.756;7.450;2023-06-10T11:39:55;6.57;;;1.77;;
19291;SDS011;9779;51.756;7.450;2023-06-10T11:42:24;2.22;;;2.03;;
19291;SDS011;9779;51.756;7.450;2023-06-10T11:44:50;2.00;;;1.90;;
19291;SDS011;9779;51.756;7.450;2023-06-10T11:47:17;2.53;;;2.33;;
19291;SDS011;9779;51.756;7.450;2023-06-10T11:49:43;2.58;;;2.38;;
19291;SDS011;9779;51.756;7.450;2023-06-10T11:52:09;7.22;;;2.38;;
19291;SDS011;9779;51.756;7.450;2023-06-10T11:54:36;3.10;;;2.35;;
19291;SDS011;9779;51.756;7.450;2023-06-10T11:57:02;2.65;;;2.45;;
19291;SDS011;9779;51.756;7.450;2023-06-10T11:59:28;7.03;;;2.10;;
19291;SDS011;9779;51.756;7.450;2023-06-10T12:01:55;2.50;;;2.20;;
19291;SDS011;9779;51.756;7.450;2023-06-10T12:04:21;12.23;;;2.10;;
19291;SDS011;9779;51.756;7.450;2023-06-10T12:09:23;2.88;;;2.67;;
19291;SDS011;9779;51.756;7.450;2023-06-10T12:11:50;2.63;;;2.42;;
19291;SDS011;9779;51.756;7.450;2023-06-10T12:14:49;2.80;;;2.40;;
19291;SDS011;9779;51.756;7.450;2023-06-10T12:17:42;2.88;;;2.35;;
19291;SDS011;9779;51.756;7.450;2023-06-10T12:20:08;7.22;;;2.22;;
19291;SDS011;9779;51.756;7.450;2023-06-10T12:22:49;3.50;;;2.22;;
19291;SDS011;9779;51.756;7.450;2023-06-10T12:25:15;6.47;;;2.35;;
19291;SDS011;9779;51.756;7.450;2023-06-10T12:27:41;3.97;;;2.47;;
19291;SDS011;9779;51.756;7.450;2023-06-10T12:30:18;2.35;;;2.15;;
19291;SDS011;9779;51.756;7.450;2023-06-10T12:32:45;3.70;;;2.30;;
19291;SDS011;9779;51.756;7.450;2023-06-10T12:35:12;2.20;;;2.03;;
19291;SDS011;9779;51.756;7.450;2023-06-10T12:37:39;2.60;;;2.38;;
19291;SDS011;9779;51.756;7.450;2023-06-10T12:40:07;2.47;;;2.28;;
19291;SDS011;9779;51.756;7.450;2023-06-10T12:42:36;8.93;;;2.10;;
19291;SDS011;9779;51.756;7.450;2023-06-10T12:45:03;2.50;;;2.40;;
19291;SDS011;9779;51.756;7.450;2023-06-10T12:47:33;2.45;;;2.22;;
19291;SDS011;9779;51.756;7.450;2023-06-10T12:50:04;1.92;;;1.83;;
19291;SDS011;9779;51.756;7.450;2023-06-10T12:52:30;2.47;;;2.28;;
19291;SDS011;9779;51.756;7.450;2023-06-10T12:54:57;4.82;;;2.03;;
19291;SDS011;9779;51.756;7.450;2023-06-10T12:57:23;4.53;;;2.42;;
19291;SDS011;9779;51.756;7.450;2023-06-10T12:59:49;2.00;;;1.90;;
19291;SDS011;9779;51.756;7.450;2023-06-10T13:02:17;2.15;;;1.95;;
19291;SDS011;9779;51.756;7.450;2023-06-10T13:04:48;2.88;;;2.30;;
19291;SDS011;9779;51.756;7.450;2023-06-10T13:07:14;2.80;;;2.60;;
19291;SDS011;9779;51.756;7.450;2023-06-10T13:09:41;3.30;;;2.47;;
19291;SDS011;9779;51.756;7.450;2023-06-10T13:12:07;2.30;;;1.85;;
19291;SDS011;9779;51.756;7.450;2023-06-10T13:14:33;2.42;;;2.22;;
19291;SDS011;9779;51.756;7.450;2023-06-10T13:16:59;4.53;;;2.08;;
19291;SDS011;9779;51.756;7.450;2023-06-10T13:19:24;2.75;;;2.38;;
19291;SDS011;9779;51.756;7.450;2023-06-10T13:21:50;2.97;;;2.55;;
19291;SDS011;9779;51.756;7.450;2023-06-10T13:24:17;2.55;;;2.00;;
19291;SDS011;9779;51.756;7.450;2023-06-10T13:26:42;2.33;;;2.08;;
19291;SDS011;9779;51.756;7.450;2023-06-10T13:29:08;4.60;;;2.15;;
19291;SDS011;9779;51.756;7.450;2023-06-10T13:31:38;5.78;;;2.05;;
19291;SDS011;9779;51.756;7.450;2023-06-10T13:34:05;3.83;;;2.17;;
19291;SDS011;9779;51.756;7.450;2023-06-10T13:36:31;3.42;;;2.00;;
19291;SDS011;9779;51.756;7.450;2023-06-10T13:38:57;3.25;;;2.30;;
19291;SDS011;9779;51.756;7.450;2023-06-10T13:41:22;2.30;;;2.20;;
19291;SDS011;9779;51.756;7.450;2023-06-10T13:43:48;2.47;;;2.28;;
19291;SDS011;9779;51.756;7.450;2023-06-10T13:46:13;2.45;;;2.25;;
19291;SDS011;9779;51.756;7.450;2023-06-10T13:48:39;2.65;;;2.45;;
19291;SDS011;9779;51.756;7.450;2023-06-10T13:51:04;2.25;;;2.05;;
19291;SDS011;9779;51.756;7.450;2023-06-10T13:53:31;4.20;;;2.47;;
19291;SDS011;9779;51.756;7.450;2023-06-10T13:55:56;2.67;;;2.20;;
19291;SDS011;9779;51.756;7.450;2023-06-10T13:58:22;11.13;;;3.08;;
19291;SDS011;9779;51.756;7.450;2023-06-10T14:00:47;3.42;;;2.05;;
19291;SDS011;9779;51.756;7.450;2023-06-10T14:03:13;2.65;;;2.45;;
19291;SDS011;9779;51.756;7.450;2023-06-10T14:05:39;3.47;;;2.45;;
19291;SDS011;9779;51.756;7.450;2023-06-10T14:08:04;2.40;;;2.20;;
19291;SDS011;9779;51.756;7.450;2023-06-10T14:10:30;2.03;;;1.92;;
19291;SDS011;9779;51.756;7.450;2023-06-10T14:12:55;2.78;;;2.25;;
19291;SDS011;9779;51.756;7.450;2023-06-10T14:15:21;3.83;;;2.45;;
19291;SDS011;9779;51.756;7.450;2023-06-10T14:17:49;2.50;;;2.30;;
19291;SDS011;9779;51.756;7.450;2023-06-10T14:20:20;2.88;;;2.38;;
19291;SDS011;9779;51.756;7.450;2023-06-10T14:22:46;2.63;;;2.30;;
19291;SDS011;9779;51.756;7.450;2023-06-10T14:25:11;3.47;;;2.35;;
19291;SDS011;9779;51.756;7.450;2023-06-10T14:27:37;4.47;;;2.00;;
19291;SDS011;9779;51.756;7.450;2023-06-10T14:30:02;2.00;;;1.88;;
19291;SDS011;9779;51.756;7.450;2023-06-10T14:32:28;2.28;;;2.08;;
19291;SDS011;9779;51.756;7.450;2023-06-10T14:34:54;3.55;;;2.60;;
19291;SDS011;9779;51.756;7.450;2023-06-10T14:37:20;2.58;;;2.22;;
19291;SDS011;9779;51.756;7.450;2023-06-10T14:39:45;3.45;;;2.30;;
19291;SDS011;9779;51.756;7.450;2023-06-10T14:42:11;2.60;;;2.40;;
19291;SDS011;9779;51.756;7.450;2023-06-10T14:44:36;2.50;;;2.20;;
19291;SDS011;9779;51.756;7.450;2023-06-10T14:47:02;2.45;;;2.17;;
19291;SDS011;9779;51.756;7.450;2023-06-10T14:49:27;1.98;;;1.88;;
19291;SDS011;9779;51.756;7.450;2023-06-10T14:51:53;5.25;;;2.10;;
19291;SDS011;9779;51.756;7.450;2023-06-10T14:54:18;9.27;;;1.92;;
19291;SDS011;9779;51.756;7.450;2023-06-10T14:56:44;4.47;;;1.88;;
19291;SDS011;9779;51.756;7.450;2023-06-10T14:59:09;4.90;;;2.10;;
19291;SDS011;9779;51.756;7.450;2023-06-10T15:01:35;5.75;;;2.50;;
19291;SDS011;9779;51.756;7.450;2023-06-10T15:04:00;5.50;;;2.22;;
19291;SDS011;9779;51.756;7.450;2023-06-10T15:06:26;4.90;;;2.40;;
19291;SDS011;9779;51.756;7.450;2023-06-10T15:08:52;5.38;;;2.30;;
19291;SDS011;9779;51.756;7.450;2023-06-10T15:11:18;3.10;;;2.38;;
19291;SDS011;9779;51.756;7.450;2023-06-10T15:13:43;2.55;;;2.35;;
19291;SDS011;9779;51.756;7.450;2023-06-10T15:16:09;2.58;;;2.10;;
19291;SDS011;9779;51.756;7.450;2023-06-10T15:18:35;8.70;;;2.88;;